東京/横田 の空港の天気 - METARとTAF

横田飛行場 ( RJTY / OKO ) - 東京都福生市
飛行場実況気象(Metar)
観測時間12/04 10:56 JST (12/04 01:56 UTC)
風向・風速北東 4m/s
視程10km以上
天気現象
なし
気温11.9℃
湿度43%
気圧1023.4hPa
METARRJTY 040156Z AUTO 04008KT 10SM CLR 12/00 A3020 RMK AO2 SLP234 T01191003 FZRANO $
過去の天気等 Google飛行場航空写真 Wunderground天気予報

過去48時間のMETAR

飛行場予報(TAF)
発表時間: 12/04 06:00 JST (12/03 21:00 UTC)
予報対象時間: 4日6時 JST ~ 5日12時 JST
風向・風速北東 5m/s
視程10km以上
全天の8割程度の雲 雲底高度 2290m
4日9時 JST ~ 4日10時 JST に徐々に
風向・風速北 6m/s
視程10km以上
全天の4割程度の雲 雲底高度 2440m
4日15時 JST ~ 4日16時 JST に徐々に
風向・風速東北東 5m/s
視程10km以上
全天の8割程度の雲 雲底高度 1830m
TAF RJTY 032100Z 0321/0503 05009KT 9999 BKN075 QNH3017INS
BECMG 0400/0401 36012KT 9999 SCT080 QNH3023INS
BECMG 0406/0407 07009KT 9999 BKN060 QNH3026INS TX13/0404Z TN03/0321Z
日本の空港のMETAR・TAFへのリンク

RJTT 東京国際空港
RJAA 新東京国際空港
RJBB 関西国際空港
RJOO 大阪空港
RJGG 中部国際空港
RJCC 新千歳空港
RJFF 福岡空港
ROAH 那覇空港


RJEC 旭川空港
RJCH 函館空港
RJCK 釧路空港
RJCM 女満別空港
RJCB 帯広空港
RJSA 青森空港
RJSS 仙台空港
RJSK 秋田空港
RJSF 福島空港
RJAH 茨城空港
RJSN 新潟空港
RJNT 富山空港
RJNK 小松飛行場
RJNS 静岡空港
RJOH 美保飛行場
RJOC 出雲空港
RJOB 岡山空港
RJOA 広島空港
RJOI 岩国飛行場
RJOT 高松空港
RJOM 松山空港
RJOK 高知空港
RJFR 北九州空港
RJFT 熊本空港
RJFU 長崎空港
RJFS 佐賀空港
RJFO 大分空港
RJFM 宮崎空港
RJFK 鹿児島空港
ROIG 石垣島空港
RJTY 横田飛行場
ROTM 普天間飛行場
RODN 嘉手納飛行場